Flight Track Log - Related Links

Times and Time Zones

All times are in EDT time to prevent confusion due to time zone crossing. See the EJA364 flight status page for this flight to view local times or setup timezone preferences in your user account.

Time Position Orientation Groundspeed Altitude Reporting Facility
EDT Latitude Longitude Course Direction KTS MPH feet Rate Location/Type
Tue 08:27:57 PM 43.4531 -124.2292 119° Southeast 225 259 3,100  Level Seattle Center
Tue 08:28:58 PM 43.4197 -124.1444 118° Southeast 258 297 7,600 4,082 Climbing Seattle Center
Tue 08:29:59 PM 43.3736 -124.0539 125° Southeast 285 328 11,400 3,344 Climbing Seattle Center
Tue 08:30:00 PM 42.8193 -123.0386 124° Southeast  Level FlightAware Approximate
Tue 08:31:00 PM 42.7523 -122.9066 126° Southeast  Level FlightAware Approximate
Tue 08:31:00 PM 43.3144 -123.9339 124° Southeast 357 411 14,400  Level Seattle Center
Tue 08:32:00 PM 42.6828 -122.7773 126° Southeast  Level FlightAware Approximate
Tue 08:32:01 PM 43.2514 -123.8108 125° Southeast 389 448 17,400  Level Seattle Center
Tue 08:33:00 PM 42.6202 -122.6421 119° Southeast  Level FlightAware Approximate
Tue 08:33:02 PM 43.1853 -123.6833 125° Southeast 404 465 20,200  Level Seattle Center
Tue 08:34:03 PM 43.1053 -123.5236 124° Southeast 419 482 23,200 2,164 Climbing Seattle Center
Tue 08:35:04 PM 43.0317 -123.3861 126° Southeast 438 504 24,600 1,377 Climbing Seattle Center
Tue 08:36:05 PM 42.9356 -123.2481 134° Southeast 486 559 26,000 1,377 Climbing Seattle Center
Tue 08:37:06 PM 42.8317 -123.1203 138° Southeast 500 575 27,400 1,574 Climbing Seattle Center
Tue 08:38:07 PM 42.7225 -122.9831 137° Southeast 510 587 29,200 1,721 Climbing Seattle Center
Tue 08:39:08 PM 42.6175 -122.8572 139° Southeast 506 582 30,900 1,525 Climbing Seattle Center
Tue 08:40:09 PM 42.5131 -122.7306 138° Southeast 501 577 32,300 1,328 Climbing Seattle Center
Tue 08:41:10 PM 42.4081 -122.6036 138° Southeast 505 581 33,600 1,279 Climbing Seattle Center
Tue 08:42:11 PM 42.3022 -122.4786 139° Southeast 505 581 34,900 1,279 Climbing Seattle Center
Tue 08:43:12 PM 42.1964 -122.3528 139° Southeast 508 585 36,200 1,230 Climbing Seattle Center
Tue 08:44:13 PM 42.0922 -122.2300 139° Southeast 504 580 37,400 1,230 Climbing Seattle Center
Tue 08:45:14 PM 41.9911 -122.1100 139° Southeast 500 575 38,700 787 Climbing Seattle Center
Tue 08:46:15 PM 41.8681 -121.9664 139° Southeast 501 577 39,000 148 Climbing Seattle Center
Tue 08:47:16 PM 41.7617 -121.8422 139° Southeast 511 588 39,000  Level Seattle Center
Tue 08:48:17 PM 41.6547 -121.7181 139° Southeast 510 587 39,000  Level Seattle Center
Tue 08:49:18 PM 41.5478 -121.5953 139° Southeast 509 586 39,000  Level Seattle Center
Tue 08:50:19 PM 41.4414 -121.4719 139° Southeast 508 585 39,000  Level Seattle Center
Tue 08:51:20 PM 41.3336 -121.3497 140° Southeast 511 588 39,000  Level Seattle Center
Tue 08:52:21 PM 41.2269 -121.2250 139° Southeast 510 587 39,000  Level Seattle Center
Tue 08:53:21 PM 41.1206 -121.1017 139° Southeast 508 585 39,000  Level Seattle Center
Tue 08:54:22 PM 41.0131 -120.9803 140° Southeast 509 586 39,000  Level Seattle Center
Tue 08:55:23 PM 40.9069 -120.8586 139° Southeast 506 582 39,000  Level Seattle Center
Tue 08:56:24 PM 40.7989 -120.7386 140° Southeast 507 583 39,000  Level Seattle Center
Tue 08:57:25 PM 40.6917 -120.6197 140° Southeast 506 582 39,000  Level Oakland Center
Tue 08:58:26 PM 40.5836 -120.5008 140° Southeast 507 583 39,000  Level Oakland Center
Tue 08:59:27 PM 40.4575 -120.3606 140° Southeast 505 581 39,000  Level Oakland Center
Tue 09:00:28 PM 40.3492 -120.2403 140° Southeast 507 583 39,000  Level Seattle Center
Tue 09:01:28 PM 40.2417 -120.1214 140° Southeast 507 583 39,000  Level Seattle Center
Tue 09:02:30 PM 40.1339 -120.0053 141° Southeast 505 581 39,000  Level Oakland Center
Tue 09:03:31 PM 40.0264 -119.8875 140° Southeast 505 581 39,000  Level Oakland Center
Tue 09:04:33 PM 39.9169 -119.7697 140° Southeast 509 586 39,000  Level Oakland Center
Tue 09:05:34 PM 39.8094 -119.6525 140° Southeast 505 581 39,000  Level Oakland Center
Tue 09:06:35 PM 39.7028 -119.5369 140° Southeast 502 578 39,000  Level Oakland Center
Tue 09:07:36 PM 39.5944 -119.4217 141° Southeast 503 579 39,000  Level Oakland Center
Tue 09:08:37 PM 39.4653 -119.2842 141° Southeast 502 578 39,000  Level Oakland Center
Tue 09:09:38 PM 39.3594 -119.1714 140° Southeast 498 573 39,000  Level Oakland Center
Tue 09:10:39 PM 39.2458 -119.0522 141° Southeast 498 573 39,000  Level Oakland Center
Tue 09:11:41 PM 39.1489 -118.9483 140° Southeast 495 570 39,000  Level Oakland Center
Tue 09:12:42 PM 39.0425 -118.8386 141° Southeast 496 571 39,000 -639 Level Oakland Center
Tue 09:13:43 PM 38.9375 -118.7278 141° Southeast 493 567 37,700 -1,279 Descending Oakland Center
Tue 09:14:44 PM 38.8325 -118.6183 141° Southeast 490 564 36,400 -1,328 Descending Oakland Center
Tue 09:15:45 PM 38.7006 -118.4828 141° Southeast 506 582 35,000 -689 Descending Oakland Center
Tue 09:16:46 PM 38.5889 -118.3672 141° Southeast 514 592 35,000  Level Oakland Center
Tue 09:17:47 PM 38.4767 -118.2522 141° Southeast 517 595 35,000  Level Oakland Center
Tue 09:18:48 PM 38.3644 -118.1375 141° Southeast 517 595 35,000  Level Oakland Center
Tue 09:19:49 PM 38.2644 -118.0344 141° Southeast 513 590 35,000  Level Oakland Center
Tue 09:20:51 PM 38.1539 -117.9225 141° Southeast 510 587 35,000 -439 Level Oakland Center
Tue 09:21:52 PM 38.0222 -117.7897 142° Southeast 508 585 34,100 -934 Descending Oakland Center
Tue 09:22:53 PM 37.9086 -117.6864 144° Southeast 508 585 33,100 -541 Descending Oakland Center
Tue 09:23:54 PM 37.7931 -117.5889 146° Southeast 504 580 33,000 -49 Descending Oakland Center
Tue 09:24:55 PM 37.6772 -117.4886 146° Southeast 507 583 33,000  Level Oakland Center
Tue 09:25:56 PM 37.5614 -117.3889 146° Southeast 507 583 33,000  Level Oakland Center
Tue 09:26:57 PM 37.4442 -117.2908 146° Southeast 507 583 33,000  Level Oakland Center
Tue 09:27:59 PM 37.3275 -117.1925 146° Southeast 507 583 33,000  Level Oakland Center
Tue 09:29:00 PM 37.2108 -117.0942 146° Southeast 507 583 33,000 -395 Level Oakland Center
Tue 09:29:15 PM 37.1642 -117.0536 145° Southeast 506 582 32,500 -1,967 Descending Los Angeles Center
Tue 09:30:01 PM 37.0731 -116.9767 146° Southeast 497 572 31,000 -1,907 Descending Oakland Center
Tue 09:31:02 PM 36.9597 -116.8828 146° Southeast 489 563 29,100 -1,737 Descending Oakland Center
Tue 09:31:17 PM 36.9361 -116.8611 144° Southeast 497 572 28,800 -1,792 Descending Los Angeles Center
Tue 09:32:19 PM 36.8219 -116.7656 146° Southeast 495 570 26,800 -1,887 Descending Los Angeles Center
Tue 09:33:21 PM 36.7297 -116.6439 133° Southeast 484 557 24,900 -1,854 Descending Los Angeles Center
Tue 09:34:22 PM 36.6433 -116.5214 131° Southeast 474 545 23,000 -1,756 Descending Los Angeles Center
Tue 09:35:24 PM 36.5611 -116.4042 131° Southeast 454 522 21,300 -968 Descending Los Angeles Center
Tue 09:36:26 PM 36.4736 -116.2817 132° Southeast 450 518 21,000 -341 Descending Los Angeles Center
Tue 09:37:27 PM 36.3792 -116.1478 131° Southeast 459 528 20,600 -1,246 Descending Los Angeles Center
Tue 09:38:36 PM 36.2844 -116.0239 133° Southeast 426 490 18,300 -2,146 Descending Los Angeles Center
Tue 09:39:30 PM 36.2208 -115.9264 129° Southeast 399 459 16,200 -1,190 Descending Los Angeles Center
Tue 09:40:32 PM 36.1775 -115.8228 117° Southeast 337 388 16,000 -339 Descending Los Angeles Center
Tue 09:41:34 PM 36.1378 -115.7044 113° Southeast 347 399 15,500 -1,220 Descending Los Angeles Center
Tue 09:42:35 PM 36.1033 -115.6000 112° Southeast 330 380 13,500 -1,902 Descending Los Angeles Center
Tue 09:43:37 PM 36.1086 -115.5086 86° East 286 329 11,600 -1,455 Descending Los Angeles Center
Tue 09:44:47 PM 36.1183 -115.3939 84° East 258 297 10,300 -1,191 Descending Los Angeles Center
Tue 09:45:48 PM 36.1269 -115.3031 83° East 264 304 9,000 -684 Descending Los Angeles Center
Tue 09:46:41 PM 36.1367 -115.2347 80° East 238 274 9,000  Level Los Angeles Center
Tue 09:47:50 PM 36.1381 -115.1558 89° East 215 247 9,000  Level Los Angeles Center
Tue 09:48:38 PM 36.1378 -115.0944 90° East 213 245 9,000 -466 Level Los Angeles Center
Tue 09:49:46 PM 36.0897 -115.0792 166° South 207 238 8,100 -492 Descending Los Angeles Center
Tue 09:50:40 PM 36.0372 -115.0986 197° South 203 234 8,000 -522 Descending Los Angeles Center
Tue 09:51:41 PM 35.9797 -115.1228 199° South 207 238 7,100 -916 Descending Los Angeles Center
Tue 09:52:51 PM 35.9369 -115.1567 213° Southwest 201 231 6,000 -1,190 Descending Los Angeles Center
Tue 09:53:42 PM 35.9719 -115.2053 312° West 193 222 4,700 -1,261 Descending Los Angeles Center
Tue 09:54:50 PM 36.0269 -115.2003 North 176 203 3,500 -1,063 Descending Los Angeles Center
Tue 09:55:18 PM 36.0475 -115.1847 31° Northeast 143 165 3,000 -1,000 Descending Los Angeles Center
Tue 09:55:44 PM 36.0611 -115.1786 20° North 135 155 2,600 -774 Descending Los Angeles Center
Tue 09:56:20 PM 36.0797 -115.1667 27° Northeast 128 147 2,200 -667 Descending Los Angeles Center
Tue 09:58:00 PM 36.0801 -115.1523 158° South  Level Estimated

Login

Don't have an account? Register now (free) for customized features, flight alerts, and more!